Time;durP1;ratioP1;P1;durP2;ratioP2;P2;SDS_P1;SDS_P2;PMS_P1;PMS_P2;Temp;Humidity;BMP_temperature;BMP_pressure;BME280_temperature;BME280_humidity;BME280_pressure;Samples;Min_cycle;Max_cycle;Signal;HPM_P1;HPM_P2
2021/08/10 00:10:17;;;;;;;6.63;2.25;;;;;;;14.54;78.60;100240.69;5946066;23;20088;-76
2021/08/10 00:20:53;;;;;;;;;;;;;;;;;;;;;
2021/08/10 00:31:09;;;;;;;;;;;;;;;;;;;;;
2021/08/10 00:34:10;;;;;;;;;;;;;;;;;;;;;
2021/08/10 00:37:30;;;;;;;6.75;1.60;;;;;;;14.07;79.20;100227.53;6002413;23;20007;-77
2021/08/10 00:40:27;;;;;;;3.42;1.88;;;;;;;14.12;79.46;100235.72;6152330;23;20020;-78
2021/08/10 00:43:05;;;;;;;;;;;;;;;;;;;;;
2021/08/10 00:46:02;;;;;;;;;;;;;;;;;;;;;
2021/08/10 00:52:03;;;;;;;1.53;1.43;;;;;;;14.12;79.42;100252.22;6100378;23;20014;-76
2021/08/10 00:55:20;;;;;;;;;;;;;;;;;;;;;
2021/08/10 00:58:23;;;;;;;;;;;;;;;;;;;;;
2021/08/10 01:04:03;;;;;;;1.55;1.45;;;;;;;13.89;79.75;100215.41;6041051;23;20072;-77
2021/08/10 01:07:16;;;;;;;5.95;2.17;;;;;;;14.09;79.40;100252.81;6066203;23;20018;-77
2021/08/10 01:10:05;;;;;;;2.67;1.73;;;;;;;14.07;80.06;100246.78;6148476;23;20016;-76
2021/08/10 01:13:25;;;;;;;4.28;1.85;;;;;;;14.02;80.01;100229.53;6165853;23;20005;-76
2021/08/10 01:16:47;;;;;;;3.20;1.65;;;;;;;13.94;80.61;100218.09;6111111;23;20009;-76
2021/08/10 01:19:48;;;;;;;3.30;2.17;;;;;;;14.08;80.14;100242.94;6120511;23;20018;-77
2021/08/10 01:22:20;;;;;;;5.40;2.38;;;;;;;13.89;79.88;100220.09;6189877;23;20001;-75
2021/08/10 01:25:04;;;;;;;6.15;1.75;;;;;;;14.01;79.99;100241.66;6168446;23;20305;-77
2021/08/10 01:28:23;;;;;;;3.05;1.92;;;;;;;14.03;80.00;100243.00;6194552;23;20001;-78
2021/08/10 01:31:36;;;;;;;6.90;2.28;;;;;;;13.97;80.72;100244.16;6090488;23;20000;-77
2021/08/10 01:34:44;;;;;;;7.65;2.80;;;;;;;13.89;79.93;100225.59;6166747;23;20631;-77
2021/08/10 01:37:23;;;;;;;3.05;2.47;;;;;;;13.76;80.25;100216.09;6166516;23;20012;-77
2021/08/10 01:40:10;;;;;;;2.65;2.13;;;;;;;13.80;80.09;100225.41;6168529;23;20040;-77
2021/08/10 01:42:45;;;;;;;2.25;2.03;;;;;;;13.90;80.54;100254.69;6166672;23;20011;-77
2021/08/10 01:45:37;;;;;;;1.48;1.38;;;;;;;13.92;80.46;100253.28;6167111;23;20009;-77
2021/08/10 01:48:14;;;;;;;1.50;1.40;;;;;;;13.89;80.20;100264.88;6177471;23;20024;-80
2021/08/10 01:54:30;;;;;;;;;;;;;;;;;;;;;
2021/08/10 01:58:00;;;;;;;;;;;;;;;;;;;;;
2021/08/10 02:11:22;;;;;;;1.60;1.50;;;;;;;13.74;80.47;100257.63;6004399;23;20043;-77
2021/08/10 02:17:40;;;;;;;2.05;1.75;;;;;;;13.51;80.87;100236.44;6097032;23;20095;-80
2021/08/10 02:30:56;;;;;;;;;;;;;;;;;;;;;
2021/08/10 02:34:12;;;;;;;4.82;1.98;;;;;;;13.46;81.02;100241.97;6077676;23;20010;-79
2021/08/10 02:37:26;;;;;;;;;;;;;;;;;;;;;
2021/08/10 02:40:48;;;;;;;6.38;2.30;;;;;;;13.46;81.01;100266.69;6077598;23;20041;-79
2021/08/10 02:43:36;;;;;;;2.05;1.90;;;;;;;13.44;80.81;100259.56;6076110;23;20010;-78
2021/08/10 02:46:02;;;;;;;2.10;1.95;;;;;;;13.29;80.82;100245.94;6050834;23;20011;-76
2021/08/10 02:49:27;;;;;;;4.95;1.77;;;;;;;13.39;80.96;100262.34;6101919;23;20053;-76
2021/08/10 02:51:57;;;;;;;8.68;2.28;;;;;;;13.14;81.39;100232.34;6135610;23;20031;-77
2021/08/10 02:55:02;;;;;;;;;;;;;;;;;;;;;
2021/08/10 02:58:31;;;;;;;2.33;2.03;;;;;;;13.33;81.34;100263.50;6089917;22;20544;-77
2021/08/10 03:08:53;;;;;;;;;;;;;;;;;;;;;
2021/08/10 03:11:41;;;;;;;1.55;1.45;;;;;;;13.25;81.80;100269.59;6088567;23;20015;-80
2021/08/10 03:14:57;;;;;;;;;;;;;;;;;;;;;
2021/08/10 03:20:59;;;;;;;;;;;;;;;;;;;;;
2021/08/10 03:24:25;;;;;;;1.70;1.45;;;;;;;13.04;81.08;100239.56;6108220;23;20055;-76
2021/08/10 03:27:06;;;;;;;;;;;;;;;;;;;;;
2021/08/10 03:30:10;;;;;;;1.60;1.50;;;;;;;12.99;81.55;100242.34;6194171;23;20028;-76
2021/08/10 03:32:38;;;;;;;1.50;1.40;;;;;;;12.97;81.10;100247.31;6149680;23;20024;-77
2021/08/10 03:35:51;;;;;;;2.00;1.65;;;;;;;13.02;81.02;100252.75;6168957;23;20027;-77
2021/08/10 03:38:14;;;;;;;1.77;1.40;;;;;;;12.91;81.12;100246.53;6170014;23;20088;-77
2021/08/10 03:40:40;;;;;;;2.70;1.30;;;;;;;12.97;81.31;100255.53;6144113;23;20009;-76
2021/08/10 03:43:08;;;;;;;1.23;1.08;;;;;;;12.99;81.67;100258.00;6168178;23;20005;-77
2021/08/10 03:46:14;;;;;;;;;;;;;;;;;;;;;
2021/08/10 03:55:26;;;;;;;0.40;0.40;;;;;;;12.64;81.50;100246.97;6050040;23;20026;-80
2021/08/10 04:12:44;;;;;;;0.40;0.40;;;;;;;12.45;80.91;100246.00;6075604;23;20440;-77
2021/08/10 04:16:06;;;;;;;;;;;;;;;;;;;;;
2021/08/10 04:18:37;;;;;;;0.20;0.20;;;;;;;12.43;81.08;100262.75;5981889;23;20032;-79
2021/08/10 04:22:06;;;;;;;0.20;0.20;;;;;;;12.23;81.13;100236.25;5994018;23;20011;-81
2021/08/10 04:24:45;;;;;;;0.20;0.15;;;;;;;12.22;81.20;100240.91;6077627;23;20131;-81
2021/08/10 04:27:58;;;;;;;0.13;0.13;;;;;;;12.23;80.95;100247.22;6081794;23;20093;-79
2021/08/10 04:30:24;;;;;;;0.00;0.00;;;;;;;12.24;80.83;100257.09;6115627;23;20005;-78
2021/08/10 04:32:53;;;;;;;0.10;0.10;;;;;;;12.28;80.75;100260.06;6195582;23;19985;-77
2021/08/10 04:35:21;;;;;;;0.40;0.20;;;;;;;12.16;80.51;100252.16;6154335;23;20084;-80
2021/08/10 04:37:57;;;;;;;;;;;;;;;;;;;;;
2021/08/10 04:40:34;;;;;;;;;;;;;;;;;;;;;
2021/08/10 04:43:09;;;;;;;1.25;0.90;;;;;;;12.32;81.46;100275.66;6194271;23;20032;-77
2021/08/10 04:45:40;;;;;;;1.60;1.10;;;;;;;12.22;81.82;100259.25;6166131;23;20001;-78
2021/08/10 04:48:31;;;;;;;1.17;1.10;;;;;;;12.16;81.11;100246.69;6144213;23;20008;-79
2021/08/10 04:51:24;;;;;;;1.00;1.00;;;;;;;12.36;81.13;100278.69;6170968;23;20019;-80
2021/08/10 04:53:50;;;;;;;0.80;0.80;;;;;;;12.33;81.38;100271.84;6166992;23;20004;-77
2021/08/10 04:57:02;;;;;;;5.22;1.15;;;;;;;12.33;82.06;100262.78;6168744;23;20388;-78
2021/08/10 04:59:50;;;;;;;;;;;;;;;;;;;;;
2021/08/10 05:10:11;;;;;;;1.67;1.42;;;;;;;12.34;81.63;100275.41;5848269;24;20010;-78
2021/08/10 05:16:09;;;;;;;;;;;;;;;;;;;;;
2021/08/10 05:18:54;;;;;;;2.53;1.48;;;;;;;12.46;82.30;100283.31;6168874;23;20039;-78
2021/08/10 05:22:20;;;;;;;2.72;2.13;;;;;;;12.52;81.88;100276.69;6141510;23;20017;-78
2021/08/10 05:24:37;;;;;;;2.30;2.13;;;;;;;12.45;82.78;100276.16;6187292;23;20095;-79
2021/08/10 05:27:08;;;;;;;3.95;2.80;;;;;;;12.54;82.47;100286.28;6165511;23;20017;-81
2021/08/10 05:29:33;;;;;;;4.25;2.72;;;;;;;12.64;83.24;100299.09;6165818;23;20012;-77
2021/08/10 05:32:49;;;;;;;;;;;;;;;;;;;;;
2021/08/10 05:35:50;;;;;;;3.60;3.03;;;;;;;12.81;84.11;100306.16;6192999;23;20435;-75
2021/08/10 05:38:42;;;;;;;;;;;;;;;;;;;;;
2021/08/10 05:41:17;;;;;;;4.57;3.28;;;;;;;12.92;83.89;100302.22;6195988;23;20025;-77
2021/08/10 05:44:32;;;;;;;;;;;;;;;;;;;;;
2021/08/10 05:47:26;;;;;;;;;;;;;;;;;;;;;
2021/08/10 06:17:37;;;;;;;3.85;3.13;;;;;;;13.69;83.87;100331.84;6050731;23;20034;-77
2021/08/10 06:20:44;;;;;;;5.63;3.33;;;;;;;13.64;83.86;100320.91;6029868;23;20015;-81
2021/08/10 06:27:37;;;;;;;3.47;3.20;;;;;;;13.76;83.45;100337.84;5967323;24;20045;-79
2021/08/10 06:34:03;;;;;;;2.65;2.50;;;;;;;13.91;83.35;100333.28;5909698;24;20488;-77
2021/08/10 06:36:46;;;;;;;;;;;;;;;;;;;;;
2021/08/10 06:43:09;;;;;;;3.42;3.13;;;;;;;14.04;82.96;100327.09;5880832;24;20044;-80
2021/08/10 06:45:36;;;;;;;2.80;2.55;;;;;;;14.10;83.33;100336.13;5878024;24;20014;-79
2021/08/10 06:48:02;;;;;;;6.32;3.33;;;;;;;14.06;83.05;100319.41;5932545;24;20013;-76
2021/08/10 06:51:13;;;;;;;3.70;3.40;;;;;;;14.26;83.55;100329.31;5932203;24;20024;-74
2021/08/10 06:53:58;;;;;;;4.13;2.40;;;;;;;14.26;82.69;100318.31;5979376;23;20052;-76
2021/08/10 06:56:24;;;;;;;4.38;3.58;;;;;;;14.30;83.03;100326.81;5973267;23;20007;-75
2021/08/10 06:58:50;;;;;;;4.13;3.10;;;;;;;14.30;83.33;100330.38;6099071;23;20096;-75
2021/08/10 07:01:37;;;;;;;4.90;3.00;;;;;;;14.42;82.76;100334.66;6134096;23;20016;-75
2021/08/10 07:04:08;;;;;;;7.60;4.20;;;;;;;14.45;83.47;100332.13;6108449;23;20344;-76
2021/08/10 07:06:37;;;;;;;4.15;3.30;;;;;;;14.49;83.24;100344.19;6159970;23;20486;-73
2021/08/10 07:09:08;;;;;;;6.05;3.60;;;;;;;14.56;82.99;100334.75;6158454;23;20440;-75
2021/08/10 07:18:54;;;;;;;5.97;2.28;;;;;;;14.68;82.17;100317.84;6192521;23;20004;-74
2021/08/10 07:21:20;;;;;;;6.32;2.38;;;;;;;14.86;81.42;100352.00;6158034;23;20005;-72
2021/08/10 07:23:45;;;;;;;3.83;2.38;;;;;;;14.84;80.81;100361.38;6194624;23;20005;-75
2021/08/10 07:26:12;;;;;;;4.20;2.60;;;;;;;14.84;80.85;100358.63;6166871;23;20024;-73
2021/08/10 07:28:37;;;;;;;4.57;2.55;;;;;;;14.92;80.70;100361.81;6167618;23;20005;-73
2021/08/10 07:31:04;;;;;;;9.05;2.72;;;;;;;14.91;80.38;100354.66;6167380;23;20015;-75
2021/08/10 07:33:31;;;;;;;5.32;2.78;;;;;;;15.00;79.81;100358.41;6167287;23;20148;-72
2021/08/10 07:35:57;;;;;;;6.00;2.17;;;;;;;15.05;79.42;100361.09;6141683;23;20009;-74
2021/08/10 07:38:25;;;;;;;3.00;2.42;;;;;;;15.16;79.32;100362.56;6139491;23;20000;-73
2021/08/10 07:40:50;;;;;;;2.03;1.85;;;;;;;15.14;79.13;100364.81;6120250;23;20008;-72
2021/08/10 07:43:16;;;;;;;3.42;1.85;;;;;;;15.27;78.75;100373.44;6144358;23;20009;-73
2021/08/10 07:45:41;;;;;;;8.10;1.98;;;;;;;15.25;78.40;100365.47;6199082;23;20012;-74
2021/08/10 07:48:07;;;;;;;3.45;2.38;;;;;;;15.39;78.42;100387.59;6148894;23;20005;-73
2021/08/10 07:50:33;;;;;;;3.47;1.83;;;;;;;15.48;77.95;100380.28;6122597;23;20149;-74
2021/08/10 07:55:51;;;;;;;3.72;2.00;;;;;;;15.85;77.66;100386.84;6166964;23;20450;-73
2021/08/10 07:58:18;;;;;;;2.05;1.83;;;;;;;15.96;77.13;100386.66;6143158;23;20168;-74
2021/08/10 08:00:44;;;;;;;2.10;1.90;;;;;;;15.99;76.28;100386.88;6145491;23;20001;-72
2021/08/10 08:03:10;;;;;;;1.90;1.50;;;;;;;16.11;75.74;100386.41;6124982;23;20009;-73
2021/08/10 08:05:37;;;;;;;3.08;1.67;;;;;;;16.25;75.27;100385.59;6152599;23;20005;-73
2021/08/10 08:08:03;;;;;;;2.38;1.60;;;;;;;16.43;74.96;100387.44;6152849;23;20033;-74
2021/08/10 08:10:29;;;;;;;1.42;1.33;;;;;;;16.56;74.33;100392.16;6152751;23;20071;-74
2021/08/10 08:12:55;;;;;;;2.17;1.58;;;;;;;16.64;74.07;100393.38;6177610;23;20016;-73
2021/08/10 08:15:21;;;;;;;1.30;1.30;;;;;;;16.79;74.01;100386.69;6148659;23;20009;-73
2021/08/10 08:17:47;;;;;;;1.23;1.13;;;;;;;17.06;73.71;100404.41;6198455;23;20012;-72
2021/08/10 08:20:13;;;;;;;1.30;1.20;;;;;;;17.17;73.34;100399.44;6198309;23;20430;-73
2021/08/10 08:22:39;;;;;;;2.58;1.25;;;;;;;17.31;72.32;100399.41;6170681;23;20059;-74
2021/08/10 08:25:05;;;;;;;1.58;1.02;;;;;;;17.44;71.97;100398.56;6169733;23;20064;-72
2021/08/10 08:27:31;;;;;;;1.60;1.50;;;;;;;17.47;71.56;100392.41;6169224;23;20490;-73
2021/08/10 08:29:57;;;;;;;2.58;1.35;;;;;;;17.68;71.13;100408.47;6195630;23;20013;-73
2021/08/10 08:32:22;;;;;;;1.40;1.30;;;;;;;17.76;69.33;100405.78;6167718;23;20047;-73
2021/08/10 08:34:48;;;;;;;1.52;1.42;;;;;;;17.89;68.11;100398.53;6191821;23;20021;-74
2021/08/10 08:37:13;;;;;;;0.90;0.70;;;;;;;18.02;68.59;100404.34;6194162;23;20012;-73
2021/08/10 08:39:39;;;;;;;1.13;0.95;;;;;;;18.07;68.29;100401.44;6190083;23;20017;-73
2021/08/10 08:42:05;;;;;;;1.13;1.02;;;;;;;18.13;68.18;100402.94;6192805;23;20342;-74
2021/08/10 08:44:36;;;;;;;2.22;1.10;;;;;;;18.18;67.12;100404.75;6191254;23;20426;-73
2021/08/10 08:47:07;;;;;;;1.02;0.90;;;;;;;18.28;67.63;100404.47;6192566;23;20024;-74
2021/08/10 08:49:40;;;;;;;6.70;1.02;;;;;;;18.38;66.39;100403.38;6165738;23;20005;-75
2021/08/10 08:52:12;;;;;;;1.23;0.90;;;;;;;18.55;66.61;100408.97;6165845;23;20012;-74
2021/08/10 08:54:38;;;;;;;1.13;0.93;;;;;;;18.83;66.78;100404.00;6194759;23;20024;-72
2021/08/10 08:57:05;;;;;;;0.90;0.90;;;;;;;19.05;65.64;100404.25;6166281;23;20004;-73
2021/08/10 08:59:31;;;;;;;0.77;0.77;;;;;;;19.23;65.58;100400.38;6168263;23;20012;-73
2021/08/10 09:01:57;;;;;;;0.80;0.80;;;;;;;19.47;64.25;100412.94;6140343;23;20016;-73
2021/08/10 09:04:23;;;;;;;3.08;0.95;;;;;;;19.49;63.45;100411.47;6142195;23;20064;-73
2021/08/10 09:06:49;;;;;;;0.70;0.70;;;;;;;19.51;63.38;100411.13;6117850;23;20016;-74
2021/08/10 09:09:24;;;;;;;1.02;0.80;;;;;;;19.58;63.53;100405.09;6140484;23;20008;-74
2021/08/10 09:11:52;;;;;;;;;;;;;;;19.87;62.29;100418.28;6143825;23;20015;-73
2021/08/10 09:14:19;;;;;;;1.25;0.70;;;;;;;19.76;62.17;100411.44;6165357;23;19923;-73
2021/08/10 09:17:21;;;;;;;0.82;0.82;;;;;;;19.97;62.37;100423.50;6142033;23;20012;-73
2021/08/10 09:19:54;;;;;;;0.70;0.57;;;;;;;20.01;62.42;100410.59;6043650;23;20017;-73
2021/08/10 09:22:28;;;;;;;1.75;0.85;;;;;;;20.26;62.00;100419.19;6121597;23;20016;-75
2021/08/10 09:25:00;;;;;;;1.25;0.80;;;;;;;20.39;60.44;100418.16;6169596;23;20049;-73
2021/08/10 09:27:30;;;;;;;1.27;1.20;;;;;;;20.43;60.68;100423.88;6170963;23;20009;-74
2021/08/10 09:29:58;;;;;;;0.65;0.65;;;;;;;20.59;60.56;100424.13;6170244;23;20008;-73
2021/08/10 09:32:24;;;;;;;3.20;1.48;;;;;;;20.80;57.92;100426.19;6144881;23;20033;-72
2021/08/10 09:35:10;;;;;;;1.33;1.02;;;;;;;21.20;57.38;100422.97;6144741;23;20013;-73
2021/08/10 09:37:37;;;;;;;0.90;0.73;;;;;;;21.82;58.54;100420.53;6166253;23;20001;-73
2021/08/10 09:40:27;;;;;;;2.35;0.75;;;;;;;22.54;53.62;100434.16;6169524;23;20001;-74
2021/08/10 09:42:53;;;;;;;4.28;1.02;;;;;;;22.28;53.04;100421.31;6148679;23;20008;-72
2021/08/10 09:45:19;;;;;;;1.48;0.90;;;;;;;22.89;55.31;100426.16;6121015;23;20031;-74
2021/08/10 09:47:45;;;;;;;1.38;0.65;;;;;;;23.64;53.30;100424.03;6168740;23;20073;-72
2021/08/10 09:50:17;;;;;;;0.70;0.68;;;;;;;24.61;50.57;100423.88;6169420;23;20013;-75
2021/08/10 09:52:44;;;;;;;0.30;0.30;;;;;;;25.57;50.40;100421.66;6169114;23;20380;-74
2021/08/10 09:55:13;;;;;;;0.47;0.40;;;;;;;26.36;46.63;100421.56;6144599;23;20005;-74
2021/08/10 09:57:41;;;;;;;0.70;0.40;;;;;;;26.72;47.53;100428.59;6145759;23;20016;-74
2021/08/10 10:00:08;;;;;;;0.60;0.60;;;;;;;27.30;46.56;100424.59;6168359;23;20012;-73
2021/08/10 10:02:36;;;;;;;0.40;0.40;;;;;;;27.77;46.62;100424.41;6122251;23;20572;-73
2021/08/10 10:05:13;;;;;;;0.73;0.45;;;;;;;27.64;41.61;100426.66;6177338;23;20005;-73
2021/08/10 10:07:51;;;;;;;2.00;0.63;;;;;;;26.87;41.25;100424.00;6150549;23;20037;-73
2021/08/10 10:10:17;;;;;;;0.50;0.40;;;;;;;26.70;44.32;100428.16;6169244;23;20067;-74
2021/08/10 10:13:03;;;;;;;;;;;;;;;;;;;;;
2021/08/10 10:15:33;;;;;;;0.90;0.90;;;;;;;29.07;40.00;100415.13;6191782;23;20032;-73
2021/08/10 10:17:58;;;;;;;0.60;0.60;;;;;;;29.19;39.51;100420.44;6168069;23;20016;-73
2021/08/10 10:20:25;;;;;;;3.85;0.70;;;;;;;29.18;38.14;100409.59;6166558;23;20347;-73
2021/08/10 10:23:00;;;;;;;2.35;0.40;;;;;;;29.56;40.49;100418.63;6192648;23;20005;-74
2021/08/10 10:25:26;;;;;;;0.73;0.50;;;;;;;30.34;35.14;100414.38;6161380;23;20012;-75
2021/08/10 10:27:53;;;;;;;0.50;0.50;;;;;;;31.04;35.50;100413.19;6164982;23;20000;-73
2021/08/10 10:30:19;;;;;;;0.30;0.30;;;;;;;32.36;36.58;100428.72;6143401;23;20023;-74
2021/08/10 10:32:45;;;;;;;0.40;0.30;;;;;;;33.46;32.89;100426.47;6140008;23;20013;-73
2021/08/10 10:35:12;;;;;;;0.30;0.25;;;;;;;34.01;32.96;100433.00;6117791;23;20040;-74
2021/08/10 10:37:40;;;;;;;0.20;0.20;;;;;;;33.79;31.32;100419.16;6142520;23;20024;-74
2021/08/10 10:40:08;;;;;;;0.50;0.40;;;;;;;32.88;29.37;100430.72;6117245;23;20113;-74
2021/08/10 10:42:37;;;;;;;0.50;0.50;;;;;;;31.54;30.61;100435.63;6165309;23;20047;-73
2021/08/10 10:45:03;;;;;;;0.68;0.60;;;;;;;30.04;31.25;100432.50;6165073;23;19993;-73
2021/08/10 10:47:33;;;;;;;0.63;0.35;;;;;;;28.90;33.34;100425.09;6142750;23;20136;-73
2021/08/10 10:49:59;;;;;;;0.85;0.77;;;;;;;28.08;33.98;100416.75;6144757;23;20009;-73
2021/08/10 10:52:32;;;;;;;0.70;0.45;;;;;;;27.55;35.92;100412.91;6190130;23;20016;-74
2021/08/10 10:54:59;;;;;;;0.52;0.52;;;;;;;27.18;37.20;100413.63;6166753;23;20432;-72
2021/08/10 10:59:57;;;;;;;0.88;0.60;;;;;;;26.17;38.96;100414.81;6192719;23;20087;-74
2021/08/10 11:02:26;;;;;;;0.82;0.70;;;;;;;25.72;40.17;100407.94;6166991;23;20036;-73
2021/08/10 11:05:12;;;;;;;0.77;0.75;;;;;;;25.43;41.47;100415.75;6140676;23;20008;-73
2021/08/10 11:07:48;;;;;;;0.73;0.52;;;;;;;25.08;42.10;100413.78;6190369;23;20020;-73
2021/08/10 11:10:22;;;;;;;0.30;0.30;;;;;;;25.68;44.52;100421.06;6165498;23;20009;-75
2021/08/10 11:12:48;;;;;;;3.30;0.80;;;;;;;27.94;42.21;100418.19;6192381;23;20472;-73
2021/08/10 11:15:21;;;;;;;0.88;0.60;;;;;;;29.94;37.22;100427.63;6166737;23;20009;-74
2021/08/10 11:18:09;;;;;;;1.83;0.50;;;;;;;32.07;34.21;100428.09;6167581;23;20005;-73
2021/08/10 11:20:35;;;;;;;0.30;0.30;;;;;;;33.65;32.84;100430.66;6195013;23;19997;-73
2021/08/10 11:23:23;;;;;;;2.85;0.40;;;;;;;34.87;28.15;100437.34;6193302;23;20036;-74
2021/08/10 11:26:02;;;;;;;0.40;0.30;;;;;;;35.81;25.45;100432.66;6191602;23;20035;-74
2021/08/10 11:28:35;;;;;;;0.20;0.20;;;;;;;36.45;25.02;100432.38;6167234;23;20009;-72
2021/08/10 11:31:06;;;;;;;0.25;0.25;;;;;;;35.56;24.77;100433.97;6166839;23;20045;-74
2021/08/10 11:33:34;;;;;;;0.40;0.30;;;;;;;35.45;25.15;100439.88;6167049;23;20622;-75
2021/08/10 11:36:12;;;;;;;0.80;0.80;;;;;;;35.73;24.70;100434.03;6191807;23;20001;-72
2021/08/10 11:39:07;;;;;;;0.40;0.25;;;;;;;36.57;23.23;100437.38;6193846;23;20281;-73
2021/08/10 11:41:39;;;;;;;0.30;0.30;;;;;;;36.29;22.70;100436.84;6192612;23;20011;-73
2021/08/10 11:44:19;;;;;;;0.30;0.22;;;;;;;35.79;22.83;100432.28;6142396;23;20013;-74
2021/08/10 11:46:46;;;;;;;0.45;0.40;;;;;;;35.73;22.52;100436.88;6194396;23;20004;-74
2021/08/10 11:49:20;;;;;;;0.90;0.30;;;;;;;36.04;22.83;100428.06;6164498;23;20004;-74
2021/08/10 11:51:47;;;;;;;0.52;0.30;;;;;;;36.65;23.14;100433.09;6170020;23;20053;-74
2021/08/10 11:54:20;;;;;;;0.20;0.20;;;;;;;37.54;21.99;100439.63;6171307;23;20067;-73
2021/08/10 11:56:50;;;;;;;0.30;0.30;;;;;;;38.71;22.54;100442.09;6195415;23;20008;-73
2021/08/10 11:59:20;;;;;;;0.73;0.40;;;;;;;39.31;19.42;100445.31;6165795;23;20064;-74
2021/08/10 12:01:47;;;;;;;0.65;0.32;;;;;;;39.35;19.04;100441.03;6194424;23;20024;-74
2021/08/10 12:04:17;;;;;;;0.93;0.60;;;;;;;39.66;19.01;100426.00;6142514;23;20063;-73
2021/08/10 12:06:44;;;;;;;0.43;0.43;;;;;;;39.12;18.74;100427.22;6192924;23;20012;-74
2021/08/10 12:09:21;;;;;;;0.30;0.30;;;;;;;39.33;18.92;100437.84;6191589;23;20005;-73
2021/08/10 12:11:57;;;;;;;0.50;0.40;;;;;;;39.54;18.38;100424.78;6192678;23;20001;-73
2021/08/10 12:14:25;;;;;;;0.50;0.50;;;;;;;37.89;18.78;100425.56;6190213;23;20040;-73
2021/08/10 12:17:07;;;;;;;0.55;0.43;;;;;;;36.36;20.28;100426.50;6164764;23;20009;-73
2021/08/10 12:19:43;;;;;;;0.50;0.50;;;;;;;35.68;22.51;100426.81;6191162;23;20039;-74
2021/08/10 12:22:28;;;;;;;1.15;0.45;;;;;;;37.00;22.69;100424.88;6166286;23;20005;-74
2021/08/10 12:24:56;;;;;;;;;;;;;;;38.93;19.38;100430.69;6163963;23;20033;-73
2021/08/10 12:27:35;;;;;;;0.50;0.43;;;;;;;39.48;18.68;100425.88;6170553;23;19908;-74
2021/08/10 12:30:00;;;;;;;1.55;0.80;;;;;;;38.57;19.15;100428.28;6176920;23;20020;-75
2021/08/10 12:32:31;;;;;;;0.30;0.30;;;;;;;37.62;20.06;100429.63;6197186;23;20033;-74
2021/08/10 12:35:08;;;;;;;0.77;0.60;;;;;;;37.67;20.15;100425.41;6193330;23;20080;-74
2021/08/10 12:37:34;;;;;;;0.60;0.60;;;;;;;37.21;20.77;100414.13;6194938;23;20028;-74
2021/08/10 12:40:01;;;;;;;3.40;0.77;;;;;;;36.21;20.70;100426.84;6191081;23;20009;-73
2021/08/10 12:42:27;;;;;;;0.47;0.47;;;;;;;35.53;21.87;100429.16;6165413;23;20499;-73
2021/08/10 12:44:54;;;;;;;1.50;0.75;;;;;;;35.59;22.88;100426.63;6115282;23;20417;-73
2021/08/10 12:47:41;;;;;;;0.60;0.57;;;;;;;36.22;22.00;100421.97;6163811;23;19995;-73
2021/08/10 12:50:29;;;;;;;0.55;0.55;;;;;;;35.50;21.75;100435.75;6166816;23;20005;-73
2021/08/10 12:52:56;;;;;;;0.60;0.60;;;;;;;33.93;23.73;100424.59;6140696;23;20016;-74
2021/08/10 12:55:22;;;;;;;0.82;0.60;;;;;;;32.49;25.39;100417.69;6114204;23;20001;-73
2021/08/10 12:57:59;;;;;;;1.10;1.00;;;;;;;31.26;26.39;100419.56;6116576;23;20036;-73
2021/08/10 13:00:26;;;;;;;0.30;0.30;;;;;;;30.18;28.43;100411.16;6140789;23;20095;-74
2021/08/10 13:02:52;;;;;;;0.98;0.82;;;;;;;29.51;29.95;100421.81;6164088;23;20028;-74
2021/08/10 13:05:22;;;;;;;0.70;0.70;;;;;;;28.98;30.71;100412.69;6190160;23;20017;-74
2021/08/10 13:08:08;;;;;;;0.60;0.60;;;;;;;28.67;31.63;100420.50;6162679;23;20000;-75
2021/08/10 13:10:40;;;;;;;0.60;0.60;;;;;;;28.37;32.49;100429.88;6138100;23;20019;-75
2021/08/10 13:13:08;;;;;;;1.70;0.57;;;;;;;28.33;33.32;100417.78;6163615;23;20467;-73
2021/08/10 13:15:42;;;;;;;1.27;0.90;;;;;;;29.04;33.03;100422.38;6165527;23;19997;-72
2021/08/10 13:18:26;;;;;;;0.35;0.35;;;;;;;29.56;31.69;100424.28;6136928;23;20009;-74
2021/08/10 13:20:58;;;;;;;0.50;0.43;;;;;;;29.64;31.46;100425.09;6164516;23;20005;-74
2021/08/10 13:23:29;;;;;;;0.77;0.77;;;;;;;29.50;30.46;100417.41;6165596;23;20009;-73
2021/08/10 13:26:14;;;;;;;1.23;1.13;;;;;;;29.52;30.12;100421.44;6163343;23;20012;-74
2021/08/10 13:28:43;;;;;;;1.05;0.95;;;;;;;29.50;31.43;100420.22;6135162;23;20014;-73
2021/08/10 13:31:16;;;;;;;0.88;0.73;;;;;;;29.26;31.50;100416.88;6191081;23;20033;-73
2021/08/10 13:33:56;;;;;;;0.60;0.60;;;;;;;29.21;32.29;100431.31;6165052;23;20009;-75
2021/08/10 13:36:29;;;;;;;0.75;0.70;;;;;;;29.11;32.42;100420.81;6165208;23;20084;-73
2021/08/10 13:38:56;;;;;;;0.40;0.40;;;;;;;29.18;31.83;100429.28;6164956;23;20009;-73
2021/08/10 13:41:26;;;;;;;0.63;0.63;;;;;;;29.23;31.51;100434.56;6166092;23;20009;-74
2021/08/10 13:43:53;;;;;;;1.35;0.70;;;;;;;29.19;31.97;100428.91;6189465;23;20009;-74
2021/08/10 13:46:19;;;;;;;0.75;0.65;;;;;;;29.02;32.00;100430.41;6140435;23;20076;-74
2021/08/10 13:48:45;;;;;;;0.60;0.55;;;;;;;28.88;32.49;100416.22;6139759;23;20009;-74
2021/08/10 13:51:12;;;;;;;1.02;0.77;;;;;;;29.78;32.38;100419.50;6167179;23;20505;-75
2021/08/10 13:53:38;;;;;;;0.35;0.35;;;;;;;31.41;30.66;100426.78;6140515;23;20013;-74
2021/08/10 13:56:04;;;;;;;0.40;0.38;;;;;;;32.95;29.76;100429.03;6141772;23;20015;-74
2021/08/10 13:58:31;;;;;;;0.63;0.50;;;;;;;33.45;27.27;100433.34;6167897;23;20012;-73
2021/08/10 14:00:58;;;;;;;0.40;0.40;;;;;;;33.05;26.27;100428.09;6141445;23;20009;-73
2021/08/10 14:03:24;;;;;;;0.73;0.52;;;;;;;32.41;26.57;100424.63;6167312;23;20013;-76
2021/08/10 14:05:49;;;;;;;0.60;0.60;;;;;;;31.84;27.41;100420.94;6145186;23;20072;-72
2021/08/10 14:08:20;;;;;;;0.60;0.40;;;;;;;31.59;28.28;100415.44;6170846;23;20101;-75
2021/08/10 14:10:46;;;;;;;0.38;0.38;;;;;;;31.41;28.40;100415.50;6171920;23;20084;-74
2021/08/10 14:13:12;;;;;;;3.22;0.50;;;;;;;31.37;27.72;100423.16;6127809;23;20025;-74
2021/08/10 14:15:38;;;;;;;0.40;0.40;;;;;;;31.41;27.44;100412.66;6153953;23;20028;-75
2021/08/10 14:18:04;;;;;;;0.47;0.38;;;;;;;31.74;27.77;100410.50;6174949;23;20000;-74
2021/08/10 14:20:29;;;;;;;0.47;0.45;;;;;;;32.34;28.13;100413.38;6176191;23;20077;-75
2021/08/10 14:22:55;;;;;;;1.00;0.52;;;;;;;33.98;25.49;100408.34;6151789;23;20072;-73
2021/08/10 14:25:20;;;;;;;0.57;0.50;;;;;;;34.36;24.32;100422.38;6150523;23;20005;-74
2021/08/10 14:27:46;;;;;;;0.88;0.60;;;;;;;33.26;25.19;100415.75;6201771;23;20001;-74
2021/08/10 14:30:12;;;;;;;0.60;0.60;;;;;;;31.84;27.21;100412.47;6148421;23;20012;-74
2021/08/10 14:32:45;;;;;;;0.70;0.60;;;;;;;30.69;28.97;100403.53;6144807;23;20019;-73
2021/08/10 14:35:11;;;;;;;0.73;0.70;;;;;;;30.01;30.31;100405.09;6170855;23;20293;-74
2021/08/10 14:37:37;;;;;;;0.50;0.50;;;;;;;29.98;31.39;100411.53;6145875;23;20009;-73
2021/08/10 14:40:05;;;;;;;1.20;0.50;;;;;;;30.36;30.26;100403.53;6168940;23;20001;-73
2021/08/10 14:42:33;;;;;;;1.70;0.82;;;;;;;30.19;30.54;100404.31;6143831;23;20013;-74
2021/08/10 14:45:00;;;;;;;1.17;0.50;;;;;;;29.70;31.28;100401.78;6145743;23;20104;-73
2021/08/10 14:47:25;;;;;;;0.63;0.50;;;;;;;29.32;32.29;100392.78;6166790;23;20009;-73
2021/08/10 14:49:51;;;;;;;1.00;0.60;;;;;;;29.51;33.59;100394.47;6168282;23;20005;-73
2021/08/10 14:52:17;;;;;;;0.30;0.30;;;;;;;31.50;32.71;100383.97;6169636;23;20013;-74
2021/08/10 14:54:43;;;;;;;0.50;0.50;;;;;;;32.97;29.18;100398.25;6144064;23;20044;-74
2021/08/10 14:57:09;;;;;;;0.47;0.40;;;;;;;33.05;27.50;100406.25;6192362;23;20005;-73
2021/08/10 14:59:35;;;;;;;0.70;0.55;;;;;;;32.29;26.86;100411.00;6166913;23;20055;-72
2021/08/10 15:02:04;;;;;;;0.90;0.70;;;;;;;31.34;28.10;100407.03;6168694;23;20066;-74
2021/08/10 15:04:30;;;;;;;1.00;0.60;;;;;;;30.80;29.94;100398.69;6168349;23;20033;-73
2021/08/10 15:06:58;;;;;;;1.67;0.68;;;;;;;31.61;29.52;100387.56;6118721;23;20028;-74
2021/08/10 15:09:25;;;;;;;0.40;0.40;;;;;;;31.77;28.53;100387.06;6117474;23;20036;-75
2021/08/10 15:12:00;;;;;;;0.40;0.40;;;;;;;31.67;29.28;100387.94;6141698;23;20064;-73
2021/08/10 15:14:27;;;;;;;0.50;0.50;;;;;;;31.36;28.76;100401.78;6167527;23;20021;-75
2021/08/10 15:17:07;;;;;;;0.63;0.35;;;;;;;30.92;29.22;100386.16;6187978;23;20031;-72
2021/08/10 15:19:35;;;;;;;0.30;0.30;;;;;;;30.51;29.89;100390.25;6117631;23;20048;-73
2021/08/10 15:22:01;;;;;;;0.35;0.35;;;;;;;30.17;30.73;100389.81;6168434;23;20371;-74